Powell Point, Texas
Current Conditions -  °F | °C
As of 7:55 AM on Thursday 30 Oct 2014 (Local Time) from KARM Reporting Station
Overcast Overcast  
Wind Chill: 62°   Ceiling: 1700
Heat Index: 62°   Visibility: 10mi
Dew Point: 57°   Wind: 3mph
Humidity: 84%   Direction: 30°NNE
Pressure: 30.12"   Gusts: NA
Location:  29.4506°N, 96.0068°W
Report Text: KARM 301255Z AUTO 03003KT 10SM OVC017 17/14 A3012 RMK AO2 T01670139
Loading
Personal Weather Stations






























Interactive Weather Map
Tropical Storm Tracking
New forecast layout! Learn more

10-Day Weather Forecast

Advertisements
Track Severe Weather on mobile